sensor_id;sensor_type;location;lat;lon;timestamp;P1;durP1;ratioP1;P2;durP2;ratioP2
37205;SDS011;23099;42.636;23.198;2023-05-20T00:02:09;18.55;;;7.03;;
37205;SDS011;23099;42.636;23.198;2023-05-20T00:04:36;18.25;;;7.05;;
37205;SDS011;23099;42.636;23.198;2023-05-20T00:07:04;15.23;;;7.25;;
37205;SDS011;23099;42.636;23.198;2023-05-20T00:09:31;16.73;;;7.65;;
37205;SDS011;23099;42.636;23.198;2023-05-20T00:11:58;20.48;;;7.43;;
37205;SDS011;23099;42.636;23.198;2023-05-20T00:14:26;15.82;;;7.20;;
37205;SDS011;23099;42.636;23.198;2023-05-20T00:16:53;15.18;;;7.25;;
37205;SDS011;23099;42.636;23.198;2023-05-20T00:19:20;14.65;;;7.10;;
37205;SDS011;23099;42.636;23.198;2023-05-20T00:21:46;14.88;;;7.13;;
37205;SDS011;23099;42.636;23.198;2023-05-20T00:24:13;17.80;;;8.10;;
37205;SDS011;23099;42.636;23.198;2023-05-20T00:26:40;15.93;;;7.13;;
37205;SDS011;23099;42.636;23.198;2023-05-20T00:29:06;16.88;;;7.28;;
37205;SDS011;23099;42.636;23.198;2023-05-20T00:31:34;13.85;;;7.05;;
37205;SDS011;23099;42.636;23.198;2023-05-20T00:34:01;14.43;;;7.13;;
37205;SDS011;23099;42.636;23.198;2023-05-20T00:36:28;13.88;;;7.55;;
37205;SDS011;23099;42.636;23.198;2023-05-20T00:38:55;11.50;;;6.78;;
37205;SDS011;23099;42.636;23.198;2023-05-20T00:41:21;15.00;;;6.65;;
37205;SDS011;23099;42.636;23.198;2023-05-20T00:43:51;11.77;;;6.43;;
37205;SDS011;23099;42.636;23.198;2023-05-20T00:46:18;15.57;;;6.20;;
37205;SDS011;23099;42.636;23.198;2023-05-20T00:48:46;12.43;;;6.80;;
37205;SDS011;23099;42.636;23.198;2023-05-20T00:53:40;15.73;;;7.28;;
37205;SDS011;23099;42.636;23.198;2023-05-20T00:56:07;17.08;;;7.57;;
37205;SDS011;23099;42.636;23.198;2023-05-20T00:58:34;15.00;;;8.25;;
37205;SDS011;23099;42.636;23.198;2023-05-20T01:01:02;16.60;;;7.80;;
37205;SDS011;23099;42.636;23.198;2023-05-20T01:03:29;16.35;;;7.40;;
37205;SDS011;23099;42.636;23.198;2023-05-20T01:05:57;15.40;;;7.93;;
37205;SDS011;23099;42.636;23.198;2023-05-20T01:08:25;17.42;;;8.15;;
37205;SDS011;23099;42.636;23.198;2023-05-20T01:10:54;17.25;;;7.97;;
37205;SDS011;23099;42.636;23.198;2023-05-20T01:13:26;13.70;;;7.45;;
37205;SDS011;23099;42.636;23.198;2023-05-20T01:15:58;15.02;;;7.45;;
37205;SDS011;23099;42.636;23.198;2023-05-20T01:18:27;13.27;;;6.90;;
37205;SDS011;23099;42.636;23.198;2023-05-20T01:20:55;15.00;;;6.80;;
37205;SDS011;23099;42.636;23.198;2023-05-20T01:23:31;14.55;;;6.35;;
37205;SDS011;23099;42.636;23.198;2023-05-20T01:25:58;14.82;;;6.65;;
37205;SDS011;23099;42.636;23.198;2023-05-20T01:28:25;12.43;;;6.00;;
37205;SDS011;23099;42.636;23.198;2023-05-20T01:30:54;13.18;;;6.72;;
37205;SDS011;23099;42.636;23.198;2023-05-20T01:33:25;11.90;;;6.05;;
37205;SDS011;23099;42.636;23.198;2023-05-20T01:35:54;12.60;;;6.30;;
37205;SDS011;23099;42.636;23.198;2023-05-20T01:38:21;14.90;;;6.28;;
37205;SDS011;23099;42.636;23.198;2023-05-20T01:43:18;13.75;;;6.72;;
37205;SDS011;23099;42.636;23.198;2023-05-20T01:45:46;11.75;;;6.05;;
37205;SDS011;23099;42.636;23.198;2023-05-20T01:48:13;13.25;;;6.85;;
37205;SDS011;23099;42.636;23.198;2023-05-20T01:50:41;16.58;;;7.07;;
37205;SDS011;23099;42.636;23.198;2023-05-20T01:53:08;15.32;;;7.43;;
37205;SDS011;23099;42.636;23.198;2023-05-20T01:55:34;19.27;;;8.85;;
37205;SDS011;23099;42.636;23.198;2023-05-20T01:58:02;13.10;;;7.22;;
37205;SDS011;23099;42.636;23.198;2023-05-20T02:00:30;17.10;;;8.18;;
37205;SDS011;23099;42.636;23.198;2023-05-20T02:02:57;14.18;;;7.72;;
37205;SDS011;23099;42.636;23.198;2023-05-20T02:05:24;16.50;;;7.75;;
37205;SDS011;23099;42.636;23.198;2023-05-20T02:07:50;13.18;;;7.18;;
37205;SDS011;23099;42.636;23.198;2023-05-20T02:10:17;16.83;;;7.63;;
37205;SDS011;23099;42.636;23.198;2023-05-20T02:12:44;18.88;;;7.80;;
37205;SDS011;23099;42.636;23.198;2023-05-20T02:15:13;16.13;;;8.35;;
37205;SDS011;23099;42.636;23.198;2023-05-20T02:17:40;14.02;;;7.70;;
37205;SDS011;23099;42.636;23.198;2023-05-20T02:20:07;14.45;;;7.85;;
37205;SDS011;23099;42.636;23.198;2023-05-20T02:22:34;14.35;;;9.00;;
37205;SDS011;23099;42.636;23.198;2023-05-20T02:25:01;15.13;;;8.32;;
37205;SDS011;23099;42.636;23.198;2023-05-20T02:27:28;15.30;;;8.35;;
37205;SDS011;23099;42.636;23.198;2023-05-20T02:29:55;17.65;;;9.05;;
37205;SDS011;23099;42.636;23.198;2023-05-20T02:32:23;14.85;;;8.48;;
37205;SDS011;23099;42.636;23.198;2023-05-20T02:34:52;14.48;;;7.63;;
37205;SDS011;23099;42.636;23.198;2023-05-20T02:37:19;15.98;;;7.80;;
37205;SDS011;23099;42.636;23.198;2023-05-20T02:39:46;19.58;;;7.38;;
37205;SDS011;23099;42.636;23.198;2023-05-20T02:42:12;15.63;;;7.53;;
37205;SDS011;23099;42.636;23.198;2023-05-20T02:44:39;17.27;;;8.10;;
37205;SDS011;23099;42.636;23.198;2023-05-20T02:47:06;12.60;;;7.60;;
37205;SDS011;23099;42.636;23.198;2023-05-20T02:49:34;14.95;;;7.53;;
37205;SDS011;23099;42.636;23.198;2023-05-20T02:52:01;12.73;;;7.15;;
37205;SDS011;23099;42.636;23.198;2023-05-20T02:54:28;19.10;;;7.32;;
37205;SDS011;23099;42.636;23.198;2023-05-20T02:56:54;14.48;;;7.28;;
37205;SDS011;23099;42.636;23.198;2023-05-20T02:59:21;13.80;;;6.95;;
37205;SDS011;23099;42.636;23.198;2023-05-20T03:01:48;14.02;;;7.38;;
37205;SDS011;23099;42.636;23.198;2023-05-20T03:04:15;14.90;;;7.20;;
37205;SDS011;23099;42.636;23.198;2023-05-20T03:06:44;11.40;;;6.90;;
37205;SDS011;23099;42.636;23.198;2023-05-20T03:09:11;11.13;;;6.13;;
37205;SDS011;23099;42.636;23.198;2023-05-20T03:11:38;12.85;;;6.80;;
37205;SDS011;23099;42.636;23.198;2023-05-20T03:14:05;12.18;;;6.28;;
37205;SDS011;23099;42.636;23.198;2023-05-20T03:16:31;10.25;;;6.10;;
37205;SDS011;23099;42.636;23.198;2023-05-20T03:18:59;18.15;;;6.28;;
37205;SDS011;23099;42.636;23.198;2023-05-20T03:21:26;11.23;;;6.15;;
37205;SDS011;23099;42.636;23.198;2023-05-20T03:23:54;11.68;;;6.68;;
37205;SDS011;23099;42.636;23.198;2023-05-20T03:26:21;15.43;;;6.28;;
37205;SDS011;23099;42.636;23.198;2023-05-20T03:31:16;10.98;;;6.35;;
37205;SDS011;23099;42.636;23.198;2023-05-20T03:33:43;12.00;;;6.55;;
37205;SDS011;23099;42.636;23.198;2023-05-20T03:36:10;13.85;;;6.75;;
37205;SDS011;23099;42.636;23.198;2023-05-20T03:38:37;13.93;;;6.55;;
37205;SDS011;23099;42.636;23.198;2023-05-20T03:41:05;16.60;;;7.15;;
37205;SDS011;23099;42.636;23.198;2023-05-20T03:43:31;14.85;;;6.85;;
37205;SDS011;23099;42.636;23.198;2023-05-20T03:45:58;12.75;;;6.43;;
37205;SDS011;23099;42.636;23.198;2023-05-20T03:48:25;12.63;;;6.45;;
37205;SDS011;23099;42.636;23.198;2023-05-20T03:50:51;13.40;;;6.65;;
37205;SDS011;23099;42.636;23.198;2023-05-20T03:53:18;13.93;;;6.65;;
37205;SDS011;23099;42.636;23.198;2023-05-20T03:55:45;19.42;;;7.50;;
37205;SDS011;23099;42.636;23.198;2023-05-20T03:58:13;13.25;;;5.88;;
37205;SDS011;23099;42.636;23.198;2023-05-20T04:00:40;16.70;;;6.57;;
37205;SDS011;23099;42.636;23.198;2023-05-20T04:03:07;11.75;;;6.40;;
37205;SDS011;23099;42.636;23.198;2023-05-20T04:05:34;14.32;;;6.65;;
37205;SDS011;23099;42.636;23.198;2023-05-20T04:08:01;14.05;;;7.07;;
37205;SDS011;23099;42.636;23.198;2023-05-20T04:10:28;15.33;;;6.23;;
37205;SDS011;23099;42.636;23.198;2023-05-20T04:12:56;14.60;;;6.78;;
37205;SDS011;23099;42.636;23.198;2023-05-20T04:15:24;12.63;;;6.30;;
37205;SDS011;23099;42.636;23.198;2023-05-20T04:17:53;12.35;;;6.57;;
37205;SDS011;23099;42.636;23.198;2023-05-20T04:20:20;11.50;;;6.28;;
37205;SDS011;23099;42.636;23.198;2023-05-20T04:22:48;11.32;;;5.60;;
37205;SDS011;23099;42.636;23.198;2023-05-20T04:25:15;10.95;;;5.45;;
37205;SDS011;23099;42.636;23.198;2023-05-20T04:27:42;11.90;;;5.45;;
37205;SDS011;23099;42.636;23.198;2023-05-20T04:30:09;11.73;;;6.03;;
37205;SDS011;23099;42.636;23.198;2023-05-20T04:32:38;16.02;;;6.63;;
37205;SDS011;23099;42.636;23.198;2023-05-20T04:35:05;12.60;;;5.80;;
37205;SDS011;23099;42.636;23.198;2023-05-20T04:37:33;10.82;;;6.22;;
37205;SDS011;23099;42.636;23.198;2023-05-20T04:40:01;12.20;;;5.78;;
37205;SDS011;23099;42.636;23.198;2023-05-20T04:42:30;13.90;;;6.75;;
37205;SDS011;23099;42.636;23.198;2023-05-20T04:44:57;13.50;;;6.28;;
37205;SDS011;23099;42.636;23.198;2023-05-20T04:47:25;11.90;;;6.43;;
37205;SDS011;23099;42.636;23.198;2023-05-20T04:49:54;10.57;;;6.22;;
37205;SDS011;23099;42.636;23.198;2023-05-20T04:52:21;11.00;;;6.50;;
37205;SDS011;23099;42.636;23.198;2023-05-20T04:54:48;14.50;;;6.78;;
37205;SDS011;23099;42.636;23.198;2023-05-20T04:57:15;12.68;;;6.40;;
37205;SDS011;23099;42.636;23.198;2023-05-20T04:59:45;10.20;;;6.05;;
37205;SDS011;23099;42.636;23.198;2023-05-20T05:02:12;13.52;;;5.95;;
37205;SDS011;23099;42.636;23.198;2023-05-20T05:04:38;12.15;;;6.32;;
37205;SDS011;23099;42.636;23.198;2023-05-20T05:07:07;13.20;;;6.63;;
37205;SDS011;23099;42.636;23.198;2023-05-20T05:09:33;13.82;;;6.15;;
37205;SDS011;23099;42.636;23.198;2023-05-20T05:12:00;13.52;;;6.75;;
37205;SDS011;23099;42.636;23.198;2023-05-20T05:14:27;12.88;;;6.60;;
37205;SDS011;23099;42.636;23.198;2023-05-20T05:16:53;14.25;;;6.45;;
37205;SDS011;23099;42.636;23.198;2023-05-20T05:19:20;16.35;;;7.10;;
37205;SDS011;23099;42.636;23.198;2023-05-20T05:21:47;9.60;;;5.93;;
37205;SDS011;23099;42.636;23.198;2023-05-20T05:24:15;13.27;;;7.07;;
37205;SDS011;23099;42.636;23.198;2023-05-20T05:26:41;16.73;;;7.47;;
37205;SDS011;23099;42.636;23.198;2023-05-20T05:29:08;15.00;;;7.28;;
37205;SDS011;23099;42.636;23.198;2023-05-20T05:31:35;13.35;;;7.82;;
37205;SDS011;23099;42.636;23.198;2023-05-20T05:34:01;13.88;;;7.35;;
37205;SDS011;23099;42.636;23.198;2023-05-20T05:36:28;16.23;;;7.72;;
37205;SDS011;23099;42.636;23.198;2023-05-20T05:38:57;16.60;;;8.05;;
37205;SDS011;23099;42.636;23.198;2023-05-20T05:41:25;12.13;;;7.85;;
37205;SDS011;23099;42.636;23.198;2023-05-20T05:43:52;13.07;;;7.35;;
37205;SDS011;23099;42.636;23.198;2023-05-20T05:46:19;14.43;;;7.50;;
37205;SDS011;23099;42.636;23.198;2023-05-20T05:48:46;14.48;;;7.85;;
37205;SDS011;23099;42.636;23.198;2023-05-20T05:53:41;15.85;;;7.63;;
37205;SDS011;23099;42.636;23.198;2023-05-20T05:56:08;16.65;;;7.90;;
37205;SDS011;23099;42.636;23.198;2023-05-20T05:58:36;15.18;;;8.43;;
37205;SDS011;23099;42.636;23.198;2023-05-20T06:01:03;18.23;;;8.68;;
37205;SDS011;23099;42.636;23.198;2023-05-20T06:03:30;16.63;;;8.68;;
37205;SDS011;23099;42.636;23.198;2023-05-20T06:05:57;16.83;;;8.45;;
37205;SDS011;23099;42.636;23.198;2023-05-20T06:08:24;15.57;;;9.02;;
37205;SDS011;23099;42.636;23.198;2023-05-20T06:10:51;18.60;;;8.88;;
37205;SDS011;23099;42.636;23.198;2023-05-20T06:13:17;18.48;;;8.85;;
37205;SDS011;23099;42.636;23.198;2023-05-20T06:15:45;16.77;;;9.13;;
37205;SDS011;23099;42.636;23.198;2023-05-20T06:18:14;15.82;;;9.50;;
37205;SDS011;23099;42.636;23.198;2023-05-20T06:20:41;18.17;;;10.40;;
37205;SDS011;23099;42.636;23.198;2023-05-20T06:23:08;18.42;;;9.93;;
37205;SDS011;23099;42.636;23.198;2023-05-20T06:25:34;18.00;;;9.40;;
37205;SDS011;23099;42.636;23.198;2023-05-20T06:28:01;20.60;;;10.32;;
37205;SDS011;23099;42.636;23.198;2023-05-20T06:30:28;18.02;;;10.48;;
37205;SDS011;23099;42.636;23.198;2023-05-20T06:32:56;18.85;;;10.68;;
37205;SDS011;23099;42.636;23.198;2023-05-20T06:35:23;20.63;;;9.85;;
37205;SDS011;23099;42.636;23.198;2023-05-20T06:37:49;19.33;;;10.48;;
37205;SDS011;23099;42.636;23.198;2023-05-20T06:40:16;18.63;;;10.73;;
37205;SDS011;23099;42.636;23.198;2023-05-20T06:42:43;18.52;;;9.57;;
37205;SDS011;23099;42.636;23.198;2023-05-20T06:45:10;18.38;;;9.70;;
37205;SDS011;23099;42.636;23.198;2023-05-20T06:47:38;19.98;;;10.40;;
37205;SDS011;23099;42.636;23.198;2023-05-20T06:50:06;16.77;;;9.23;;
37205;SDS011;23099;42.636;23.198;2023-05-20T06:52:33;16.67;;;9.70;;
37205;SDS011;23099;42.636;23.198;2023-05-20T06:55:00;18.10;;;8.57;;
37205;SDS011;23099;42.636;23.198;2023-05-20T06:57:27;14.43;;;8.20;;
37205;SDS011;23099;42.636;23.198;2023-05-20T06:59:53;15.30;;;9.27;;
37205;SDS011;23099;42.636;23.198;2023-05-20T07:02:20;14.85;;;8.88;;
37205;SDS011;23099;42.636;23.198;2023-05-20T07:04:47;15.52;;;7.88;;
37205;SDS011;23099;42.636;23.198;2023-05-20T07:07:15;16.63;;;8.75;;
37205;SDS011;23099;42.636;23.198;2023-05-20T07:09:42;15.05;;;7.25;;
37205;SDS011;23099;42.636;23.198;2023-05-20T07:12:09;14.43;;;7.28;;
37205;SDS011;23099;42.636;23.198;2023-05-20T07:14:35;17.13;;;7.72;;
37205;SDS011;23099;42.636;23.198;2023-05-20T07:17:02;17.52;;;6.68;;
37205;SDS011;23099;42.636;23.198;2023-05-20T07:19:30;9.80;;;5.72;;
37205;SDS011;23099;42.636;23.198;2023-05-20T07:21:57;10.30;;;5.85;;
37205;SDS011;23099;42.636;23.198;2023-05-20T07:24:25;12.30;;;4.93;;
37205;SDS011;23099;42.636;23.198;2023-05-20T07:26:52;15.38;;;5.55;;
37205;SDS011;23099;42.636;23.198;2023-05-20T07:29:19;10.68;;;5.88;;
37205;SDS011;23099;42.636;23.198;2023-05-20T07:31:45;12.40;;;5.78;;
37205;SDS011;23099;42.636;23.198;2023-05-20T07:34:13;9.15;;;4.97;;
37205;SDS011;23099;42.636;23.198;2023-05-20T07:36:40;11.40;;;5.78;;
37205;SDS011;23099;42.636;23.198;2023-05-20T07:39:07;9.63;;;5.25;;
37205;SDS011;23099;42.636;23.198;2023-05-20T07:41:36;13.38;;;5.70;;
37205;SDS011;23099;42.636;23.198;2023-05-20T07:44:03;11.48;;;5.15;;
37205;SDS011;23099;42.636;23.198;2023-05-20T07:46:33;9.52;;;4.65;;
37205;SDS011;23099;42.636;23.198;2023-05-20T07:49:00;12.37;;;5.87;;
37205;SDS011;23099;42.636;23.198;2023-05-20T07:51:26;15.30;;;6.60;;
37205;SDS011;23099;42.636;23.198;2023-05-20T07:53:53;14.63;;;6.10;;
37205;SDS011;23099;42.636;23.198;2023-05-20T07:56:20;13.30;;;5.68;;
37205;SDS011;23099;42.636;23.198;2023-05-20T07:58:52;11.15;;;5.03;;
37205;SDS011;23099;42.636;23.198;2023-05-20T08:01:19;13.57;;;4.90;;
37205;SDS011;23099;42.636;23.198;2023-05-20T08:03:46;9.73;;;4.85;;
37205;SDS011;23099;42.636;23.198;2023-05-20T08:06:13;10.70;;;5.13;;
37205;SDS011;23099;42.636;23.198;2023-05-20T08:08:40;11.73;;;4.60;;
37205;SDS011;23099;42.636;23.198;2023-05-20T08:11:07;8.95;;;4.60;;
37205;SDS011;23099;42.636;23.198;2023-05-20T08:13:33;10.00;;;4.75;;
37205;SDS011;23099;42.636;23.198;2023-05-20T08:16:02;12.88;;;5.68;;
37205;SDS011;23099;42.636;23.198;2023-05-20T08:18:29;10.68;;;4.95;;
37205;SDS011;23099;42.636;23.198;2023-05-20T08:20:57;12.73;;;5.57;;
37205;SDS011;23099;42.636;23.198;2023-05-20T08:23:24;11.00;;;5.20;;
37205;SDS011;23099;42.636;23.198;2023-05-20T08:25:51;14.23;;;5.57;;
37205;SDS011;23099;42.636;23.198;2023-05-20T08:28:18;11.73;;;5.07;;
37205;SDS011;23099;42.636;23.198;2023-05-20T08:30:46;9.27;;;5.40;;
37205;SDS011;23099;42.636;23.198;2023-05-20T08:33:14;12.73;;;5.95;;
37205;SDS011;23099;42.636;23.198;2023-05-20T08:35:43;13.00;;;6.45;;
37205;SDS011;23099;42.636;23.198;2023-05-20T08:38:10;16.00;;;5.57;;
37205;SDS011;23099;42.636;23.198;2023-05-20T08:40:37;10.75;;;5.18;;
37205;SDS011;23099;42.636;23.198;2023-05-20T08:43:03;10.57;;;5.43;;
37205;SDS011;23099;42.636;23.198;2023-05-20T08:45:31;10.77;;;5.53;;
37205;SDS011;23099;42.636;23.198;2023-05-20T08:47:59;11.10;;;6.22;;
37205;SDS011;23099;42.636;23.198;2023-05-20T08:50:27;14.95;;;5.80;;
37205;SDS011;23099;42.636;23.198;2023-05-20T08:52:54;13.00;;;5.13;;
37205;SDS011;23099;42.636;23.198;2023-05-20T08:55:23;9.75;;;5.47;;
37205;SDS011;23099;42.636;23.198;2023-05-20T08:57:52;11.30;;;6.20;;
37205;SDS011;23099;42.636;23.198;2023-05-20T09:00:19;16.98;;;6.18;;
37205;SDS011;23099;42.636;23.198;2023-05-20T09:02:51;12.35;;;5.57;;
37205;SDS011;23099;42.636;23.198;2023-05-20T09:05:18;10.43;;;6.05;;
37205;SDS011;23099;42.636;23.198;2023-05-20T09:07:47;13.52;;;5.82;;
37205;SDS011;23099;42.636;23.198;2023-05-20T09:10:14;11.02;;;6.25;;
37205;SDS011;23099;42.636;23.198;2023-05-20T09:12:41;11.00;;;6.10;;
37205;SDS011;23099;42.636;23.198;2023-05-20T09:15:08;11.18;;;6.15;;
37205;SDS011;23099;42.636;23.198;2023-05-20T09:17:35;11.13;;;6.07;;
37205;SDS011;23099;42.636;23.198;2023-05-20T09:20:04;12.75;;;6.07;;
37205;SDS011;23099;42.636;23.198;2023-05-20T09:22:33;13.23;;;6.05;;
37205;SDS011;23099;42.636;23.198;2023-05-20T09:25:02;11.50;;;5.70;;
37205;SDS011;23099;42.636;23.198;2023-05-20T09:27:29;12.48;;;6.00;;
37205;SDS011;23099;42.636;23.198;2023-05-20T09:29:56;9.70;;;5.28;;
37205;SDS011;23099;42.636;23.198;2023-05-20T09:32:22;10.70;;;6.00;;
37205;SDS011;23099;42.636;23.198;2023-05-20T09:34:52;10.55;;;4.75;;
37205;SDS011;23099;42.636;23.198;2023-05-20T09:37:20;13.98;;;5.40;;
37205;SDS011;23099;42.636;23.198;2023-05-20T09:42:24;11.77;;;5.78;;
37205;SDS011;23099;42.636;23.198;2023-05-20T09:44:53;9.10;;;5.32;;
37205;SDS011;23099;42.636;23.198;2023-05-20T09:47:21;10.27;;;6.20;;
37205;SDS011;23099;42.636;23.198;2023-05-20T09:49:49;10.65;;;5.80;;
37205;SDS011;23099;42.636;23.198;2023-05-20T09:52:17;10.68;;;5.43;;
37205;SDS011;23099;42.636;23.198;2023-05-20T09:54:44;10.43;;;5.72;;
37205;SDS011;23099;42.636;23.198;2023-05-20T09:57:13;11.02;;;5.50;;
37205;SDS011;23099;42.636;23.198;2023-05-20T09:59:41;19.48;;;5.95;;
37205;SDS011;23099;42.636;23.198;2023-05-20T10:02:09;11.85;;;6.20;;
37205;SDS011;23099;42.636;23.198;2023-05-20T10:04:37;10.93;;;6.03;;
37205;SDS011;23099;42.636;23.198;2023-05-20T10:07:26;12.07;;;5.53;;
37205;SDS011;23099;42.636;23.198;2023-05-20T10:10:17;16.15;;;6.18;;
37205;SDS011;23099;42.636;23.198;2023-05-20T10:12:54;10.90;;;5.00;;
37205;SDS011;23099;42.636;23.198;2023-05-20T10:15:35;10.20;;;5.20;;
37205;SDS011;23099;42.636;23.198;2023-05-20T10:18:11;11.00;;;5.20;;
37205;SDS011;23099;42.636;23.198;2023-05-20T10:20:47;11.52;;;5.93;;
37205;SDS011;23099;42.636;23.198;2023-05-20T10:23:21;11.50;;;4.97;;
37205;SDS011;23099;42.636;23.198;2023-05-20T10:25:51;8.93;;;5.32;;
37205;SDS011;23099;42.636;23.198;2023-05-20T10:28:29;10.38;;;4.63;;
37205;SDS011;23099;42.636;23.198;2023-05-20T10:30:58;11.53;;;4.90;;
37205;SDS011;23099;42.636;23.198;2023-05-20T10:33:25;11.80;;;5.00;;
37205;SDS011;23099;42.636;23.198;2023-05-20T10:35:53;10.93;;;5.03;;
37205;SDS011;23099;42.636;23.198;2023-05-20T10:38:20;7.95;;;4.72;;
37205;SDS011;23099;42.636;23.198;2023-05-20T10:40:46;12.40;;;4.63;;
37205;SDS011;23099;42.636;23.198;2023-05-20T10:43:15;8.63;;;4.78;;
37205;SDS011;23099;42.636;23.198;2023-05-20T10:45:51;8.80;;;4.45;;
37205;SDS011;23099;42.636;23.198;2023-05-20T10:48:22;10.10;;;4.13;;
37205;SDS011;23099;42.636;23.198;2023-05-20T10:50:49;7.95;;;4.00;;
37205;SDS011;23099;42.636;23.198;2023-05-20T10:53:20;9.57;;;4.13;;
37205;SDS011;23099;42.636;23.198;2023-05-20T10:55:48;7.03;;;4.00;;
37205;SDS011;23099;42.636;23.198;2023-05-20T10:58:17;9.60;;;3.90;;
37205;SDS011;23099;42.636;23.198;2023-05-20T11:00:44;9.53;;;3.67;;
37205;SDS011;23099;42.636;23.198;2023-05-20T11:03:11;5.78;;;3.30;;
37205;SDS011;23099;42.636;23.198;2023-05-20T11:10:34;7.53;;;3.25;;
37205;SDS011;23099;42.636;23.198;2023-05-20T11:13:02;6.00;;;3.10;;
37205;SDS011;23099;42.636;23.198;2023-05-20T11:15:29;8.10;;;3.40;;
37205;SDS011;23099;42.636;23.198;2023-05-20T11:17:59;8.55;;;3.28;;
37205;SDS011;23099;42.636;23.198;2023-05-20T11:20:26;6.75;;;3.45;;
37205;SDS011;23099;42.636;23.198;2023-05-20T11:22:54;8.90;;;3.53;;
37205;SDS011;23099;42.636;23.198;2023-05-20T11:27:48;6.70;;;3.67;;
37205;SDS011;23099;42.636;23.198;2023-05-20T11:30:15;7.90;;;3.17;;
37205;SDS011;23099;42.636;23.198;2023-05-20T11:32:54;6.95;;;3.53;;
37205;SDS011;23099;42.636;23.198;2023-05-20T11:35:22;10.13;;;3.85;;
37205;SDS011;23099;42.636;23.198;2023-05-20T11:37:54;7.47;;;3.92;;
37205;SDS011;23099;42.636;23.198;2023-05-20T11:40:23;7.28;;;3.80;;
37205;SDS011;23099;42.636;23.198;2023-05-20T11:42:52;10.30;;;4.32;;
37205;SDS011;23099;42.636;23.198;2023-05-20T11:45:19;9.57;;;4.22;;
37205;SDS011;23099;42.636;23.198;2023-05-20T11:47:46;11.80;;;4.30;;
37205;SDS011;23099;42.636;23.198;2023-05-20T11:50:23;8.82;;;4.05;;
37205;SDS011;23099;42.636;23.198;2023-05-20T11:52:55;8.70;;;4.28;;
37205;SDS011;23099;42.636;23.198;2023-05-20T11:55:23;9.55;;;3.92;;
37205;SDS011;23099;42.636;23.198;2023-05-20T11:57:50;9.07;;;3.80;;
37205;SDS011;23099;42.636;23.198;2023-05-20T12:00:17;9.73;;;3.83;;
37205;SDS011;23099;42.636;23.198;2023-05-20T12:02:44;8.45;;;4.18;;
37205;SDS011;23099;42.636;23.198;2023-05-20T12:05:12;8.93;;;3.97;;
37205;SDS011;23099;42.636;23.198;2023-05-20T12:07:39;8.77;;;4.40;;
37205;SDS011;23099;42.636;23.198;2023-05-20T12:10:08;8.55;;;3.90;;
37205;SDS011;23099;42.636;23.198;2023-05-20T12:12:35;6.30;;;3.45;;
37205;SDS011;23099;42.636;23.198;2023-05-20T12:15:02;10.00;;;4.10;;
37205;SDS011;23099;42.636;23.198;2023-05-20T12:17:30;9.35;;;4.22;;
37205;SDS011;23099;42.636;23.198;2023-05-20T12:22:24;8.30;;;3.80;;
37205;SDS011;23099;42.636;23.198;2023-05-20T12:24:50;9.73;;;4.75;;
37205;SDS011;23099;42.636;23.198;2023-05-20T12:27:18;9.43;;;3.75;;
37205;SDS011;23099;42.636;23.198;2023-05-20T12:29:45;9.18;;;4.00;;
37205;SDS011;23099;42.636;23.198;2023-05-20T12:32:12;7.65;;;3.78;;
37205;SDS011;23099;42.636;23.198;2023-05-20T12:34:38;10.18;;;3.80;;
37205;SDS011;23099;42.636;23.198;2023-05-20T12:37:05;16.83;;;4.93;;
37205;SDS011;23099;42.636;23.198;2023-05-20T12:39:32;11.27;;;4.10;;
37205;SDS011;23099;42.636;23.198;2023-05-20T12:41:59;8.23;;;3.63;;
37205;SDS011;23099;42.636;23.198;2023-05-20T12:44:27;7.97;;;4.03;;
37205;SDS011;23099;42.636;23.198;2023-05-20T12:46:53;7.32;;;3.53;;
37205;SDS011;23099;42.636;23.198;2023-05-20T12:49:21;6.97;;;3.00;;
37205;SDS011;23099;42.636;23.198;2023-05-20T12:51:47;8.13;;;3.00;;
37205;SDS011;23099;42.636;23.198;2023-05-20T12:54:15;7.32;;;3.00;;
37205;SDS011;23099;42.636;23.198;2023-05-20T12:56:42;6.20;;;2.97;;
37205;SDS011;23099;42.636;23.198;2023-05-20T12:59:11;8.93;;;3.00;;
37205;SDS011;23099;42.636;23.198;2023-05-20T13:01:39;7.30;;;2.80;;
37205;SDS011;23099;42.636;23.198;2023-05-20T13:04:06;7.55;;;3.20;;
37205;SDS011;23099;42.636;23.198;2023-05-20T13:06:33;7.65;;;3.25;;
37205;SDS011;23099;42.636;23.198;2023-05-20T13:09:00;9.80;;;3.35;;
37205;SDS011;23099;42.636;23.198;2023-05-20T13:11:26;8.05;;;3.28;;
37205;SDS011;23099;42.636;23.198;2023-05-20T13:13:53;7.22;;;3.42;;
37205;SDS011;23099;42.636;23.198;2023-05-20T13:16:20;7.17;;;3.10;;
37205;SDS011;23099;42.636;23.198;2023-05-20T13:18:48;7.57;;;2.97;;
37205;SDS011;23099;42.636;23.198;2023-05-20T13:21:15;5.82;;;3.13;;
37205;SDS011;23099;42.636;23.198;2023-05-20T13:23:42;7.78;;;3.35;;
37205;SDS011;23099;42.636;23.198;2023-05-20T13:26:09;12.27;;;3.75;;
37205;SDS011;23099;42.636;23.198;2023-05-20T13:28:35;10.23;;;3.67;;
37205;SDS011;23099;42.636;23.198;2023-05-20T13:31:03;17.27;;;6.97;;
37205;SDS011;23099;42.636;23.198;2023-05-20T13:33:30;7.60;;;3.80;;
37205;SDS011;23099;42.636;23.198;2023-05-20T13:35:59;5.22;;;2.70;;
37205;SDS011;23099;42.636;23.198;2023-05-20T13:38:26;6.35;;;2.90;;
37205;SDS011;23099;42.636;23.198;2023-05-20T13:40:52;8.98;;;3.40;;
37205;SDS011;23099;42.636;23.198;2023-05-20T13:43:23;5.97;;;2.60;;
37205;SDS011;23099;42.636;23.198;2023-05-20T13:45:50;6.88;;;2.88;;
37205;SDS011;23099;42.636;23.198;2023-05-20T13:48:16;6.18;;;3.10;;
37205;SDS011;23099;42.636;23.198;2023-05-20T13:50:43;7.50;;;3.08;;
37205;SDS011;23099;42.636;23.198;2023-05-20T13:53:11;7.47;;;2.85;;
37205;SDS011;23099;42.636;23.198;2023-05-20T13:55:38;5.45;;;2.80;;
37205;SDS011;23099;42.636;23.198;2023-05-20T13:58:04;7.30;;;2.80;;
37205;SDS011;23099;42.636;23.198;2023-05-20T14:02:59;7.18;;;3.03;;
37205;SDS011;23099;42.636;23.198;2023-05-20T14:05:28;7.65;;;3.00;;
37205;SDS011;23099;42.636;23.198;2023-05-20T14:07:55;5.07;;;2.67;;
37205;SDS011;23099;42.636;23.198;2023-05-20T14:10:23;8.57;;;2.70;;
37205;SDS011;23099;42.636;23.198;2023-05-20T14:12:51;5.50;;;2.55;;
37205;SDS011;23099;42.636;23.198;2023-05-20T14:15:18;7.72;;;3.40;;
37205;SDS011;23099;42.636;23.198;2023-05-20T14:17:45;5.47;;;2.72;;
37205;SDS011;23099;42.636;23.198;2023-05-20T14:20:13;11.60;;;5.35;;
37205;SDS011;23099;42.636;23.198;2023-05-20T14:22:40;8.40;;;3.55;;
37205;SDS011;23099;42.636;23.198;2023-05-20T14:25:06;6.43;;;3.22;;
37205;SDS011;23099;42.636;23.198;2023-05-20T14:27:35;7.38;;;3.63;;
37205;SDS011;23099;42.636;23.198;2023-05-20T14:30:02;7.65;;;2.60;;
37205;SDS011;23099;42.636;23.198;2023-05-20T14:32:29;7.47;;;3.00;;
37205;SDS011;23099;42.636;23.198;2023-05-20T14:34:56;6.45;;;3.22;;
37205;SDS011;23099;42.636;23.198;2023-05-20T14:37:22;7.70;;;3.10;;
37205;SDS011;23099;42.636;23.198;2023-05-20T14:39:50;7.10;;;3.38;;
37205;SDS011;23099;42.636;23.198;2023-05-20T14:42:16;8.23;;;3.42;;
37205;SDS011;23099;42.636;23.198;2023-05-20T14:44:45;8.15;;;3.22;;
37205;SDS011;23099;42.636;23.198;2023-05-20T14:47:11;7.03;;;3.05;;
37205;SDS011;23099;42.636;23.198;2023-05-20T14:49:40;8.13;;;3.42;;
37205;SDS011;23099;42.636;23.198;2023-05-20T14:52:08;10.82;;;3.78;;
37205;SDS011;23099;42.636;23.198;2023-05-20T14:54:35;9.43;;;3.08;;